Andrei Pavlov

Olheiro-Chefe - Baranovichi
29 Abr 2027
Quinta-feira
Processo

Personalidade

Adaptabilidade (19) Ambição (11) Controvérsia (12) Lealdade (8) Pressão (11) Profissionalismo (11) Espírito Esportivo (8) Temperamento (12)

Perfil

Estilo de Treinamento Democrático
Licença Nacional B
Determinação 3
Gestão de Pessoas 2
Motivação 4
Disciplina 3
Satisfação no Trabalho
50%
Fadiga
0%
Função Olheiro-Chefe
Salário 16.9K p/s
Contrato 14.03.2029

Desempenho

Comportamento Normal
Eficácia do Treinamento
10%
Desenvolvimento do Jogador
35%
Prevenção de Lesões
20%
Implementação Tática
10%

Eventos Recentes

Participou de uma reunião de recrutamento 14d atrás
Participou de uma reunião de recrutamento 21d atrás
Participou de uma reunião de recrutamento 28d atrás
Participou de uma reunião de recrutamento 35d atrás
Participou de uma reunião de recrutamento 42d atrás
Participou de uma reunião de recrutamento 49d atrás
Participou de uma reunião de recrutamento 49d atrás
Participou de uma reunião de recrutamento 56d atrás

Monitorando agora

115
Jogador Clube Status Habilidade Confiança Observado Última observação Último voto
Mikhail Sentyurin Znamya Truda Ativo 76 / 85 40% 1 03.02.2027 -
Yefim Stanislavchuk Chelyabinsk Ativo 66 / 76 40% 1 03.02.2027 -
Ilja Ivanov Rubin Ativo 92 / 72 40% 1 31.01.2027 -
Timofey Kalistratov KAMAZ Ativo 82 / 93 40% 1 31.01.2027 -
Konstantin Nizhegorodov Rubin Ativo 95 / 95 40% 1 30.01.2027 -
Ilja Vinnikov Salyut Ativo 76 / 90 40% 1 30.01.2027 -
Redvan Osmanov Sevastopol Ativo 86 / 71 40% 1 25.01.2027 -
Vladislav Faskhutdinov Salyut Ativo 65 / 66 40% 1 25.01.2027 -
Yordy Reyna Rodina Ativo 117 / 98 40% 2 23.01.2027 -
Vladislav Shpitalny Sokol Ativo 93 / 91 40% 1 23.01.2027 -
Stanislav Biblyk Chaika Ativo 100 / 89 40% 1 22.01.2027 -
Mikhail Zabotkin Druzhba Ativo 89 / 78 40% 1 22.01.2027 -
Surkhaikhan Abdullaev KAMAZ Rejeitado 74 / 88 40% 1 21.01.2027 Mais informações
Yegor Ponomarev Tver Ativo 64 / 63 40% 1 21.01.2027 -
Mikhail Gainov Dinamo Stavropol Ativo 88 / 89 40% 2 18.01.2027 -
Aleksej Golijanin Sokol Ativo 85 / 76 40% 1 18.01.2027 -
Denis Mironov Shinnik Ativo 71 / 88 40% 1 17.01.2027 -
Alexandr Komissarov Torpedo Vladimir Ativo 64 / 61 40% 1 17.01.2027 -
Yury Maximov Sevastopol Ativo 67 / 78 40% 2 16.01.2027 -
Daniil Agureev Amkar Ativo 94 / 93 40% 1 16.01.2027 -
Amur Kalmykov Spartak Kostroma Ativo 98 / 116 40% 2 15.01.2027 -
David Karaev KAMAZ Ativo 110 / 109 40% 1 14.01.2027 -
Mikhail Ageev Kuban Ativo 90 / 95 40% 1 14.01.2027 -
Daniel Yegorov Znamya Truda Ativo 70 / 61 40% 1 08.01.2027 -
Denis Rubanov Dinamo Stavropol Ativo 93 / 79 40% 1 08.01.2027 -
Alexey Skvortsov Metallurg Negociando 71 / 73 40% 1 07.01.2027 -
Alexey Shulgin Spartak Tambov Ativo 68 / 75 40% 1 04.01.2027 -
Vitaly Dunay (Karpenko) Chaika Rejeitado 92 / 85 40% 1 04.01.2027 Mais informações
Jakub Bielecki Ruch Ativo 86 / 107 40% 1 31.12.2026 -
Vyacheslav Shataev Tver Ativo 41 / 74 40% 2 29.12.2026 -
Gonçalo Silva Porto Ativo 90 / 83 40% 1 29.12.2026 -
Petr Kudakovskiy Levadia Ativo 113 / 111 40% 2 28.12.2026 -
David Sangaré Ryazan Ativo 86 / 90 40% 3 28.12.2026 -
Alil Magomedov Saturn Ativo 72 / 65 40% 2 27.12.2026 -
Andrey Bondar' Spartak Tambov Ativo 79 / 68 40% 1 27.12.2026 -
Alfie Marriott Legion Ativo 91 / 89 40% 2 26.12.2026 -
Bogatyr Razhbudinov Dinamo Makhachkala Ativo 41 / 47 40% 1 26.12.2026 -
Roman Raifegerste Khimik Ativo 74 / 74 40% 1 25.12.2026 -
Georgy Tuaev Rubin Yalta Ativo 63 / 81 40% 1 25.12.2026 -
Vladimir Tsapurin SKA Khabarovsk Ativo 73 / 90 40% 4 23.12.2026 -
Mikhail Tsulaia Arsenal Tula Ativo 92 / 89 40% 1 23.12.2026 -
Dmitry Saganovich Luki-Energiya Ativo 64 / 72 40% 4 22.12.2026 -
Andrey Savin Dinamo Kirov Ativo 78 / 92 40% 2 22.12.2026 -
Dmitry Rebrov Volna Ativo 86 / 78 40% 3 20.12.2026 -
Vitaly Shitov Tyumen Ativo 107 / 82 40% 1 20.12.2026 -
Chingiz Magomadov Mashuk Ativo 98 / 105 40% 1 20.12.2026 -
Vladislav Poletaev Irtysh Ativo 95 / 86 40% 1 19.12.2026 -
Georgy Natabashvili Chernomorets Ativo 102 / 93 40% 1 19.12.2026 -
Amir Fattakhov Znamya Truda Ativo 67 / 62 40% 2 18.12.2026 -
Roman Denisov KDV Tomsk Ativo 90 / 88 40% 1 17.12.2026 -
Pavel Kireenko Dinamo St Petersburg Ativo 96 / 99 40% 1 17.12.2026 -
Ilja Kuptsov Veles Ativo 104 / 88 40% 4 15.12.2026 -
Danil Beltyukov Krylya Sovetov Ativo 73 / 63 40% 2 15.12.2026 -
Maxim Novikov Amkar Ativo 74 / 74 40% 1 13.12.2026 -
Daniil Grigorjev Metallurg Ativo 68 / 74 40% 1 13.12.2026 -
Housseini Ousmanou Gazelle Garoua Ativo 63 / 64 40% 1 13.12.2026 -
Anton Shitov Dinamo Vladivostok Ativo 68 / 83 40% 1 12.12.2026 -
Luke Bell Nart Ativo 56 / 78 40% 1 09.12.2026 -
Danil Ryazanov Rostov Ativo 84 / 74 40% 2 07.12.2026 -
Timur Magomedov Dinamo Makhachkala Ativo 94 / 105 40% 1 07.12.2026 -
Islam Imamov SKA Khabarovsk Ativo 99 / 87 40% 1 05.12.2026 -
Vladislav Ignatjev Arsenal Dzerzhinsk Ativo 98 / 107 40% 1 05.12.2026 -
Danila Tretyak Molodechno Ativo 67 / 87 40% 2 04.12.2026 -
Roman Anikeev Dinamo Vologda Ativo 67 / 79 40% 2 04.12.2026 -
Nikita Pavlov Chaika Ativo 91 / 74 40% 2 03.12.2026 -
Timofey Kashintsev Neftekhimik Ativo 91 / 100 40% 1 03.12.2026 -
Alexandr Ryabinkin Textilschik Ativo 81 / 82 40% 1 30.11.2026 -
Semyon Fadeev Nizhniy Novgorod Ativo 79 / 80 40% 1 29.11.2026 -
Timofey Mitrov Shinnik Ativo 90 / 94 40% 1 26.11.2026 -
Nikita Yanovich Tyumen Ativo 103 / 92 40% 1 26.11.2026 -
Aslanbek Kumykov Spartak Nalchik Ativo 70 / 57 40% 2 25.11.2026 -
Evgeny Zamerets KAMAZ Ativo 84 / 74 40% 1 22.11.2026 -
Vladimir Shaikhutdinov Mashuk Ativo 88 / 80 40% 1 20.11.2026 -
Vasco Espejo Alianza Lima Ativo 86 / 86 40% 1 16.11.2026 -
Eric González Defensores Unidos Ativo 95 / 118 40% 1 15.11.2026 -
Tiago Libares All Boys Ativo 96 / 97 40% 1 10.11.2026 -
David Agudelo Depor Ativo 73 / 110 40% 1 09.11.2026 -
Alexandr Mironov Dinamo Kirov Ativo 94 / 86 40% 1 06.11.2026 -
Andrey Khodanovich Orenburg Ativo 63 / 62 40% 1 04.11.2026 -
Ruslan Belov Valletta Ativo 56 / 68 40% 1 03.11.2026 -
Maxim Shalonikov Nosta Ativo 49 / 49 40% 1 03.11.2026 -
Diego Capdevila Cerro Ativo 90 / 83 40% 1 31.10.2026 -
Ilja Bychkov Dinamo Barnaul Ativo 72 / 54 40% 2 28.10.2026 -
Artem Denisenko Bumprom Gomel Ativo 65 / 84 40% 1 28.10.2026 -
Fernando Abarzúa San Luis Ativo 99 / 93 40% 1 26.10.2026 -
Alexandr Stenyakin Rodina Ativo 59 / 68 40% 1 26.10.2026 -
Tamerlan Khachirov Druzhba Ativo 79 / 68 40% 1 25.10.2026 -
Guilherme Pires Sporting CP Ativo 82 / 86 40% 1 24.10.2026 -
Valery Matveenkov Liepaja Ativo 42 / 58 40% 1 23.10.2026 -
Facundo Ledesma Mitre Ativo 114 / 80 40% 1 23.10.2026 -
Alberto Martínez Guarani Ativo 105 / 90 40% 1 22.10.2026 -
Denilson Ojeda Carabobo Ativo 78 / 92 40% 1 22.10.2026 -
Onome Onotafe FC Diarra Ativo 98 / 52 40% 1 21.10.2026 -
Gustavo Dionisi Guarani Ativo 66 / 99 40% 1 16.10.2026 -
Frankarlos Benítez Caracas Ativo 87 / 101 40% 1 16.10.2026 -
Matthew Turner Cardiff City Ativo 91 / 100 40% 1 13.10.2026 -
Pavel Zemskov Orel Ativo 68 / 61 40% 1 13.10.2026 -
Alejandro Santander Cobresal Ativo 110 / 99 40% 1 12.10.2026 -
Owen Foster Hull City Ativo 87 / 67 40% 1 11.10.2026 -
Lucas Villagra Teplice Ativo 82 / 92 40% 1 09.10.2026 -
Agustín Mangiaut Argentinos Juniors Ativo 118 / 84 40% 1 08.10.2026 -
Matteo Cardinali Hibernians Ativo 92 / 116 40% 1 07.10.2026 -
Aleksander Łubik Tarxien Rainbows Ativo 58 / 58 40% 1 06.10.2026 -
Eduardo Villanueva Colo-Colo Ativo 86 / 102 40% 1 06.10.2026 -
César Bravo Barranquilla Ativo 94 / 105 40% 1 05.10.2026 -
Juan Pablo Vásquez Novi Pazar Ativo 93 / 90 40% 1 05.10.2026 -
Pavel Prishivalko Belshina Ativo 83 / 72 40% 1 07.09.2026 -
Maxim Tarasov Alania Ativo 61 / 57 40% 1 27.08.2026 -
Vladislav Kulchitskiy Slutsk Ativo 59 / 76 37% 1 10.08.2026 -
Léo Ribeiro Kauno Zalgiris Ativo 95 / 110 40% 1 03.08.2026 -
Marius Vaitkunas Ativo 87 / 83 40% 2 03.08.2026 -
Stanislav Basyrov Rodina Ativo 66 / 87 40% 1 03.08.2026 -
Lautaro Garzón San Martín SJ Ativo 127 / 123 40% 1 01.08.2026 -
Ángel Romero Boca Juniors Ativo 131 / 111 40% 1 01.08.2026 -
Anton Shamonin Rostov Ativo 85 / 85 40% 1 01.08.2026 -